Time;durP1;ratioP1;P1;durP2;ratioP2;P2;SDS_P1;SDS_P2;PMS_P1;PMS_P2;Temp;Humidity;BMP_temperature;BMP_pressure;BME280_temperature;BME280_humidity;BME280_pressure;Samples;Min_cycle;Max_cycle;Signal;HPM_P1;HPM_P2
2023/09/11 00:02:16;;;;;;;8.20;7.60;;;22.70;99.90;;;;;;5063418;28;20247;-67
2023/09/11 00:04:43;;;;;;;7.72;7.13;;;22.70;99.90;;;;;;5064253;28;20217;-66
2023/09/11 00:07:10;;;;;;;7.72;7.13;;;22.70;99.90;;;;;;5064486;28;20306;-67
2023/09/11 00:09:38;;;;;;;8.07;7.45;;;22.60;99.90;;;;;;5079828;28;20298;-67
2023/09/11 00:12:06;;;;;;;8.27;7.53;;;22.60;99.90;;;;;;5098415;28;20312;-67
2023/09/11 00:14:33;;;;;;;9.55;7.53;;;22.60;99.90;;;;;;5104978;28;20314;-66
2023/09/11 00:16:59;;;;;;;8.23;7.40;;;22.60;99.90;;;;;;5105198;28;20210;-67
2023/09/11 00:19:26;;;;;;;8.23;7.55;;;22.50;99.90;;;;;;5099741;28;20210;-67
2023/09/11 00:21:53;;;;;;;7.45;6.93;;;22.50;99.90;;;;;;5084808;28;20305;-67
2023/09/11 00:24:20;;;;;;;8.25;7.63;;;22.50;99.90;;;;;;5084729;28;20302;-66
2023/09/11 00:26:48;;;;;;;9.52;8.05;;;22.50;99.90;;;;;;5065885;28;20251;-66
2023/09/11 00:29:15;;;;;;;10.20;7.75;;;22.40;99.90;;;;;;5074767;28;20563;-67
2023/09/11 00:31:42;;;;;;;8.43;7.78;;;22.40;99.90;;;;;;5075214;28;20295;-67
2023/09/11 00:34:09;;;;;;;7.60;6.90;;;22.30;99.90;;;;;;5064167;28;20305;-67
2023/09/11 00:36:36;;;;;;;8.48;7.55;;;22.30;99.90;;;;;;5064244;28;20272;-67
2023/09/11 00:39:03;;;;;;;8.02;7.10;;;22.30;99.90;;;;;;5082475;28;20238;-67
2023/09/11 00:41:30;;;;;;;8.30;7.50;;;22.30;99.90;;;;;;5092788;28;20342;-67
2023/09/11 00:43:58;;;;;;;8.02;7.22;;;22.20;99.90;;;;;;5104672;28;20289;-67
2023/09/11 00:46:25;;;;;;;7.97;7.30;;;22.20;99.90;;;;;;5105204;28;20835;-67
2023/09/11 00:52:16;;;;;;;9.15;8.35;;;22.20;99.90;;;;;;5084304;28;20182;-67
2023/09/11 00:54:43;;;;;;;8.27;7.50;;;22.10;99.90;;;;;;5083232;28;20340;-67
2023/09/11 00:57:10;;;;;;;8.45;7.63;;;22.10;99.90;;;;;;5084588;28;20219;-67
2023/09/11 00:59:38;;;;;;;9.95;8.95;;;22.10;99.90;;;;;;5084546;28;20857;-67
2023/09/11 01:02:05;;;;;;;8.30;7.70;;;22.10;99.90;;;;;;5084659;28;20230;-67
2023/09/11 01:04:32;;;;;;;8.52;7.93;;;22.00;99.90;;;;;;5084340;28;20256;-67
2023/09/11 01:06:59;;;;;;;7.55;6.85;;;22.00;99.90;;;;;;5084626;28;20230;-66
2023/09/11 01:09:26;;;;;;;9.00;8.10;;;22.00;99.90;;;;;;5084386;28;20289;-67
2023/09/11 01:11:53;;;;;;;8.35;7.53;;;22.00;99.90;;;;;;5096344;28;20698;-67
2023/09/11 01:14:20;;;;;;;8.15;7.45;;;21.90;99.90;;;;;;5108309;28;20230;-67
2023/09/11 01:16:59;;;;;;;9.05;8.15;;;21.90;99.90;;;;;;5108242;28;20289;-66
2023/09/11 01:19:51;;;;;;;8.77;7.97;;;21.90;99.90;;;;;;5107823;28;20190;-67
2023/09/11 01:22:41;;;;;;;8.25;7.53;;;21.80;99.90;;;;;;5069215;28;20208;-67
2023/09/11 01:25:35;;;;;;;9.70;7.53;;;21.80;99.90;;;;;;5067407;28;20282;-66
2023/09/11 01:28:29;;;;;;;7.68;6.85;;;21.70;99.90;;;;;;5068091;28;20302;-66
2023/09/11 01:30:59;;;;;;;7.95;7.25;;;21.70;99.90;;;;;;5067951;28;20210;-66
2023/09/11 01:33:26;;;;;;;7.50;6.90;;;21.70;99.90;;;;;;5067737;28;20204;-66
2023/09/11 01:35:53;;;;;;;7.90;7.40;;;21.70;99.90;;;;;;5073587;28;20609;-66
2023/09/11 01:38:20;;;;;;;9.27;8.45;;;21.70;99.90;;;;;;5108559;28;20252;-66
2023/09/11 01:40:51;;;;;;;9.52;7.57;;;21.70;99.90;;;;;;5105492;28;20304;-66
2023/09/11 01:43:20;;;;;;;7.72;7.22;;;21.60;99.90;;;;;;5087662;28;20372;-66
2023/09/11 01:45:49;;;;;;;8.18;7.38;;;21.60;99.90;;;;;;5081408;28;20232;-66
2023/09/11 01:48:19;;;;;;;8.23;7.45;;;21.60;99.90;;;;;;5067157;28;20235;-66
2023/09/11 01:50:46;;;;;;;8.32;7.63;;;21.60;99.90;;;;;;5067358;28;20259;-67
2023/09/11 01:53:13;;;;;;;7.75;7.15;;;21.60;99.90;;;;;;5067436;28;20587;-66
2023/09/11 01:55:41;;;;;;;7.75;7.00;;;21.60;99.90;;;;;;5081914;28;20732;-66
2023/09/11 01:58:08;;;;;;;8.65;7.85;;;21.60;99.90;;;;;;5086987;28;20369;-66
2023/09/11 02:00:35;;;;;;;8.25;7.65;;;21.50;99.90;;;;;;5086712;28;20872;-66
2023/09/11 02:03:02;;;;;;;7.90;7.30;;;21.50;99.90;;;;;;5071597;28;20729;-66
2023/09/11 02:05:30;;;;;;;9.02;8.18;;;21.50;99.90;;;;;;5067049;28;20233;-66
2023/09/11 02:07:57;;;;;;;10.60;8.07;;;21.50;99.90;;;;;;5067145;28;20302;-66
2023/09/11 02:10:24;;;;;;;9.20;8.40;;;21.50;99.90;;;;;;5066926;28;20207;-66
2023/09/11 02:12:51;;;;;;;8.80;7.90;;;21.50;99.90;;;;;;5086137;28;20294;-66
2023/09/11 02:15:17;;;;;;;8.63;8.00;;;21.40;99.90;;;;;;5074691;28;20696;-67
2023/09/11 02:17:44;;;;;;;8.88;7.97;;;21.40;99.90;;;;;;5075863;28;20219;-67
2023/09/11 02:20:11;;;;;;;8.77;7.70;;;21.40;99.90;;;;;;5086229;28;20214;-67
2023/09/11 02:22:40;;;;;;;8.57;7.78;;;21.40;99.90;;;;;;5081239;28;20209;-65
2023/09/11 02:25:07;;;;;;;9.05;8.18;;;21.40;99.90;;;;;;5079350;28;20741;-65
2023/09/11 02:27:34;;;;;;;8.27;7.68;;;21.30;99.90;;;;;;5073568;28;20808;-65
2023/09/11 02:30:01;;;;;;;8.13;7.50;;;21.30;99.90;;;;;;5070590;28;20696;-65
2023/09/11 02:32:28;;;;;;;8.65;7.80;;;21.30;99.90;;;;;;5079987;28;20570;-65
2023/09/11 02:34:56;;;;;;;10.07;8.50;;;21.30;99.90;;;;;;5078032;28;20624;-65
2023/09/11 02:37:22;;;;;;;8.48;7.68;;;21.30;99.90;;;;;;5064453;28;20246;-65
2023/09/11 02:39:51;;;;;;;8.50;7.65;;;21.20;99.90;;;;;;5064385;28;20286;-65
2023/09/11 02:42:18;;;;;;;8.60;7.85;;;21.20;99.90;;;;;;5095148;28;20329;-66
2023/09/11 02:44:44;;;;;;;8.88;7.97;;;21.20;99.90;;;;;;5088482;28;20205;-66
2023/09/11 02:47:11;;;;;;;8.48;7.78;;;21.20;99.90;;;;;;5076509;28;20226;-65
2023/09/11 02:49:38;;;;;;;8.98;8.00;;;21.20;99.90;;;;;;5075014;28;20226;-65
2023/09/11 02:52:05;;;;;;;9.20;8.25;;;21.00;99.90;;;;;;5067496;28;20211;-65
2023/09/11 02:54:32;;;;;;;8.73;7.90;;;20.90;99.90;;;;;;5077132;28;20207;-64
2023/09/11 02:57:01;;;;;;;8.45;7.72;;;20.90;99.90;;;;;;5068858;28;20205;-65
2023/09/11 02:59:28;;;;;;;8.45;7.75;;;21.00;99.90;;;;;;5064034;28;20295;-65
2023/09/11 03:01:55;;;;;;;8.75;8.00;;;21.00;99.90;;;;;;5063843;28;20358;-68
2023/09/11 03:04:21;;;;;;;8.80;8.20;;;21.00;99.90;;;;;;5077405;28;20260;-66
2023/09/11 03:06:48;;;;;;;8.43;7.63;;;21.00;99.90;;;;;;5071722;28;20253;-66
2023/09/11 03:09:16;;;;;;;9.20;8.30;;;21.00;99.90;;;;;;5083118;28;20616;-66
2023/09/11 03:11:43;;;;;;;9.23;8.43;;;21.00;99.90;;;;;;5095205;28;20263;-66
2023/09/11 03:14:13;;;;;;;9.93;7.75;;;20.90;99.90;;;;;;5094101;28;20214;-66
2023/09/11 03:16:43;;;;;;;9.32;8.30;;;20.90;99.90;;;;;;5085010;28;20214;-66
2023/09/11 03:19:10;;;;;;;8.18;7.45;;;20.90;99.90;;;;;;5084820;28;20255;-66
2023/09/11 03:21:37;;;;;;;8.88;8.07;;;20.90;99.90;;;;;;5084729;28;20281;-66
2023/09/11 03:24:04;;;;;;;8.85;8.20;;;20.90;99.90;;;;;;5084892;28;20298;-66
2023/09/11 03:26:31;;;;;;;8.35;7.75;;;20.80;99.90;;;;;;5085309;28;20241;-66
2023/09/11 03:28:58;;;;;;;8.27;7.50;;;20.80;99.90;;;;;;5079845;28;20213;-66
2023/09/11 03:31:26;;;;;;;8.25;7.53;;;20.80;99.90;;;;;;5065213;28;20206;-66
2023/09/11 03:33:53;;;;;;;8.52;7.82;;;20.80;99.90;;;;;;5064998;28;20276;-66
2023/09/11 03:36:20;;;;;;;9.18;8.27;;;20.80;99.90;;;;;;5064628;28;20207;-66
2023/09/11 03:38:47;;;;;;;8.77;7.97;;;20.80;99.90;;;;;;5064896;28;20234;-66
2023/09/11 03:41:15;;;;;;;8.60;7.72;;;20.80;99.90;;;;;;5077358;28;20573;-66
2023/09/11 03:43:42;;;;;;;9.00;8.30;;;20.70;99.90;;;;;;5105150;28;20241;-66
2023/09/11 03:46:12;;;;;;;8.88;8.27;;;20.60;99.90;;;;;;5105468;28;20233;-66
2023/09/11 03:48:40;;;;;;;9.25;8.43;;;20.60;99.90;;;;;;5086526;28;20227;-66
2023/09/11 03:51:07;;;;;;;9.00;8.18;;;20.40;99.90;;;;;;5084891;28;20298;-66
2023/09/11 03:53:34;;;;;;;8.93;8.13;;;20.40;99.90;;;;;;5084960;28;20262;-67
2023/09/11 03:56:02;;;;;;;9.07;8.27;;;20.50;99.90;;;;;;5085378;28;20297;-66
2023/09/11 03:58:29;;;;;;;9.23;8.35;;;20.50;99.90;;;;;;5085287;28;20260;-66
2023/09/11 04:00:56;;;;;;;9.55;8.57;;;20.50;99.90;;;;;;5085002;28;20234;-66
2023/09/11 04:03:23;;;;;;;9.32;8.48;;;20.50;99.90;;;;;;5085163;28;20478;-66
2023/09/11 04:05:51;;;;;;;9.57;8.77;;;20.50;99.90;;;;;;5084927;28;20303;-66
2023/09/11 04:08:18;;;;;;;8.95;8.35;;;20.50;99.90;;;;;;5085084;28;20305;-66
2023/09/11 04:10:45;;;;;;;9.25;8.55;;;20.40;99.90;;;;;;5074192;28;20302;-66
2023/09/11 04:13:12;;;;;;;9.70;8.77;;;20.40;99.90;;;;;;5064402;28;20302;-66
2023/09/11 04:15:40;;;;;;;8.53;7.93;;;20.20;99.90;;;;;;5064140;28;20294;-66
2023/09/11 04:18:07;;;;;;;9.10;8.40;;;20.20;99.90;;;;;;5066705;28;20211;-66
2023/09/11 04:20:34;;;;;;;10.10;8.98;;;20.20;99.90;;;;;;5084846;28;20215;-66
2023/09/11 04:23:03;;;;;;;9.60;8.90;;;20.30;99.90;;;;;;5084813;28;20242;-66
2023/09/11 04:25:30;;;;;;;9.95;8.95;;;20.30;99.90;;;;;;5084669;28;20206;-65
2023/09/11 04:27:57;;;;;;;9.77;8.90;;;20.20;99.90;;;;;;5084612;28;20701;-66
2023/09/11 04:30:24;;;;;;;10.30;9.30;;;20.20;99.90;;;;;;5084505;28;20202;-66
2023/09/11 04:32:51;;;;;;;10.25;9.25;;;20.20;99.90;;;;;;5084827;28;20203;-66
2023/09/11 04:35:20;;;;;;;9.32;8.52;;;20.20;99.90;;;;;;5083364;28;20217;-66
2023/09/11 04:37:47;;;;;;;11.27;9.35;;;20.30;99.90;;;;;;5064171;28;20203;-65
2023/09/11 04:40:15;;;;;;;10.75;9.30;;;20.30;99.90;;;;;;5064724;28;20715;-66
2023/09/11 04:42:43;;;;;;;9.60;8.80;;;20.30;99.90;;;;;;5065621;28;20219;-66
2023/09/11 04:45:10;;;;;;;10.45;9.57;;;20.30;99.90;;;;;;5084601;28;20229;-66
2023/09/11 04:47:37;;;;;;;9.68;8.77;;;20.30;99.90;;;;;;5085945;28;20229;-66
2023/09/11 04:50:05;;;;;;;12.60;10.03;;;20.30;99.90;;;;;;5088464;28;20757;-66
2023/09/11 04:52:31;;;;;;;10.33;9.33;;;20.30;99.90;;;;;;5088174;28;20206;-66
2023/09/11 04:54:59;;;;;;;10.97;9.57;;;20.30;99.90;;;;;;5088440;28;20217;-65
2023/09/11 04:57:27;;;;;;;10.23;9.23;;;20.30;99.90;;;;;;5087966;28;20206;-66
2023/09/11 04:59:54;;;;;;;10.35;9.35;;;20.30;99.90;;;;;;5087787;28;20322;-66
2023/09/11 05:02:21;;;;;;;9.23;8.53;;;20.20;99.90;;;;;;5088335;28;20234;-65
2023/09/11 05:04:50;;;;;;;9.43;8.52;;;20.30;99.90;;;;;;5088483;28;20291;-66
2023/09/11 05:07:16;;;;;;;13.17;9.27;;;20.40;99.90;;;;;;5085476;28;20227;-66
2023/09/11 05:09:43;;;;;;;9.63;8.82;;;20.40;99.90;;;;;;5088380;28;20205;-66
2023/09/11 05:12:10;;;;;;;10.82;9.77;;;20.40;99.90;;;;;;5102632;28;20210;-66
2023/09/11 05:14:39;;;;;;;10.02;9.13;;;20.40;99.90;;;;;;5103814;28;20203;-66
2023/09/11 05:17:05;;;;;;;11.02;9.93;;;20.40;99.90;;;;;;5088337;28;20218;-66
2023/09/11 05:19:32;;;;;;;10.30;9.40;;;20.40;99.90;;;;;;5087847;28;20212;-66
2023/09/11 05:21:59;;;;;;;9.80;9.00;;;20.40;99.90;;;;;;5087959;28;20298;-66
2023/09/11 05:24:27;;;;;;;12.93;9.40;;;20.50;99.90;;;;;;5088157;28;20322;-66
2023/09/11 05:26:54;;;;;;;12.70;9.20;;;20.40;99.90;;;;;;5088045;28;20230;-66
2023/09/11 05:29:21;;;;;;;12.13;9.00;;;20.40;99.90;;;;;;5087447;28;20293;-66
2023/09/11 05:31:49;;;;;;;13.05;9.68;;;20.50;99.90;;;;;;5087969;28;20295;-66
2023/09/11 05:34:16;;;;;;;15.32;9.82;;;20.50;99.90;;;;;;5087632;28;20206;-66
2023/09/11 05:36:42;;;;;;;22.20;10.07;;;20.50;99.90;;;;;;5074928;28;20323;-66
2023/09/11 05:39:09;;;;;;;13.48;9.73;;;20.50;99.90;;;;;;5069099;28;20712;-66
2023/09/11 05:41:36;;;;;;;20.23;10.43;;;20.50;99.90;;;;;;5087485;28;20242;-66
2023/09/11 05:44:04;;;;;;;14.00;9.63;;;20.60;99.90;;;;;;5088136;28;20207;-66
2023/09/11 05:46:31;;;;;;;19.35;10.15;;;20.60;99.90;;;;;;5088098;28;20289;-65
2023/09/11 05:48:59;;;;;;;11.50;9.18;;;20.60;99.90;;;;;;5088155;28;20245;-66
2023/09/11 05:51:26;;;;;;;11.20;9.18;;;20.60;99.90;;;;;;5087961;28;20318;-66
2023/09/11 05:53:53;;;;;;;11.45;9.38;;;20.60;99.90;;;;;;5087599;28;20290;-66
2023/09/11 05:56:20;;;;;;;10.82;9.85;;;20.60;99.90;;;;;;5087280;28;20305;-66
2023/09/11 05:58:47;;;;;;;11.15;9.80;;;20.70;99.90;;;;;;5087099;28;20574;-66
2023/09/11 06:01:14;;;;;;;15.23;10.15;;;20.70;99.90;;;;;;5087199;28;20241;-66
2023/09/11 06:03:41;;;;;;;11.38;10.30;;;20.70;99.90;;;;;;5072807;28;20207;-66
2023/09/11 06:06:09;;;;;;;10.70;9.80;;;20.70;99.90;;;;;;5066900;28;20345;-66
2023/09/11 06:08:36;;;;;;;11.00;9.90;;;20.80;99.90;;;;;;5066786;28;20230;-66
2023/09/11 06:11:03;;;;;;;15.85;10.60;;;20.90;99.90;;;;;;5072641;28;20291;-66
2023/09/11 06:13:31;;;;;;;13.93;11.15;;;20.90;99.90;;;;;;5086724;28;20203;-66
2023/09/11 06:15:58;;;;;;;11.35;9.95;;;21.00;99.90;;;;;;5087238;28;20551;-66
2023/09/11 06:18:25;;;;;;;12.00;10.63;;;21.00;99.90;;;;;;5075844;28;20302;-66
2023/09/11 06:20:51;;;;;;;12.75;11.52;;;21.00;99.90;;;;;;5066306;28;20290;-66
2023/09/11 06:23:20;;;;;;;11.90;11.00;;;21.10;99.90;;;;;;5066949;28;20691;-66
2023/09/11 06:25:47;;;;;;;12.80;11.40;;;21.10;99.90;;;;;;5066037;28;20246;-66
2023/09/11 06:28:13;;;;;;;13.05;12.02;;;21.20;99.90;;;;;;5066063;28;20314;-66
2023/09/11 06:30:41;;;;;;;12.70;11.63;;;21.20;99.90;;;;;;5065702;28;20646;-66
2023/09/11 06:33:07;;;;;;;13.90;12.05;;;21.30;99.90;;;;;;5066239;28;20318;-66
2023/09/11 06:35:34;;;;;;;12.95;11.75;;;21.30;99.90;;;;;;5065707;28;20569;-67
2023/09/11 06:38:01;;;;;;;14.45;11.90;;;21.40;99.90;;;;;;5066305;28;20682;-66
2023/09/11 06:40:29;;;;;;;13.55;12.10;;;21.40;99.90;;;;;;5066021;28;20222;-66
2023/09/11 06:42:57;;;;;;;12.55;11.40;;;21.40;99.90;;;;;;5066007;28;20878;-66
2023/09/11 06:45:24;;;;;;;13.13;11.82;;;21.50;99.90;;;;;;5065973;28;20999;-66
2023/09/11 06:47:50;;;;;;;12.95;11.88;;;21.50;99.90;;;;;;5065473;28;20314;-66
2023/09/11 06:50:17;;;;;;;13.00;11.80;;;21.50;99.90;;;;;;5065840;28;20326;-65
2023/09/11 06:52:44;;;;;;;13.07;11.93;;;21.50;99.90;;;;;;5065263;28;20321;-66
2023/09/11 06:55:11;;;;;;;12.35;11.20;;;21.60;99.90;;;;;;5065675;28;20338;-66
2023/09/11 06:57:42;;;;;;;11.48;10.50;;;21.60;99.90;;;;;;5065482;28;20298;-66
2023/09/11 07:00:11;;;;;;;12.00;10.90;;;21.70;99.90;;;;;;5068670;28;20212;-66
2023/09/11 07:02:39;;;;;;;11.93;10.82;;;21.70;99.90;;;;;;5065408;28;20231;-66
2023/09/11 07:05:06;;;;;;;12.27;11.23;;;21.70;99.90;;;;;;5065230;28;20208;-66
2023/09/11 07:07:33;;;;;;;10.68;9.88;;;21.60;99.90;;;;;;5073280;28;20262;-66
2023/09/11 07:10:00;;;;;;;11.25;10.25;;;21.70;99.90;;;;;;5085282;28;20213;-66
2023/09/11 07:12:27;;;;;;;11.38;10.35;;;21.80;99.90;;;;;;5102393;28;20305;-66
2023/09/11 07:14:56;;;;;;;11.05;9.85;;;21.90;99.90;;;;;;5092840;28;20619;-66
2023/09/11 07:17:23;;;;;;;26.00;23.20;;;22.00;99.90;;;;;;5085943;28;20329;-66
2023/09/11 07:19:50;;;;;;;14.32;13.02;;;22.10;99.90;;;;;;5085584;28;20330;-66
2023/09/11 07:22:17;;;;;;;18.45;16.63;;;22.10;99.90;;;;;;5086064;28;20293;-66
2023/09/11 07:24:44;;;;;;;12.43;11.23;;;22.20;99.90;;;;;;5085533;28;20202;-66
2023/09/11 07:27:11;;;;;;;10.82;9.93;;;22.30;99.90;;;;;;5085224;28;20297;-67
2023/09/11 07:29:37;;;;;;;10.48;9.45;;;22.40;99.90;;;;;;5085262;28;20206;-66
2023/09/11 07:32:06;;;;;;;9.57;8.68;;;22.40;99.90;;;;;;5080209;28;21047;-66
2023/09/11 07:34:33;;;;;;;10.20;8.82;;;22.50;99.90;;;;;;5079391;28;20637;-66
2023/09/11 07:37:00;;;;;;;9.55;8.65;;;22.60;99.90;;;;;;5070360;28;20316;-66
2023/09/11 07:39:27;;;;;;;9.32;8.63;;;22.70;99.90;;;;;;5065367;28;20303;-66
2023/09/11 07:41:54;;;;;;;9.10;8.27;;;22.70;99.90;;;;;;5089366;28;20322;-66
2023/09/11 07:44:21;;;;;;;9.35;8.30;;;22.80;99.90;;;;;;5105416;28;20232;-66
2023/09/11 07:46:48;;;;;;;8.90;7.68;;;22.80;99.90;;;;;;5105509;28;20313;-66
2023/09/11 07:49:17;;;;;;;9.27;8.38;;;22.90;99.90;;;;;;5105661;28;20668;-66
2023/09/11 07:51:44;;;;;;;9.20;8.35;;;22.90;99.90;;;;;;5105271;28;20301;-66
2023/09/11 07:54:10;;;;;;;8.65;8.05;;;23.00;99.90;;;;;;5105167;28;20735;-66
2023/09/11 07:56:37;;;;;;;8.80;7.95;;;23.10;99.90;;;;;;5069988;28;20729;-66
2023/09/11 07:59:05;;;;;;;9.50;8.57;;;23.20;99.90;;;;;;5064504;28;20211;-66
2023/09/11 08:01:31;;;;;;;9.18;8.23;;;23.20;99.90;;;;;;5064556;28;20281;-66
2023/09/11 08:03:58;;;;;;;9.15;8.43;;;23.30;99.90;;;;;;5065096;28;20298;-66
2023/09/11 08:06:27;;;;;;;8.25;7.60;;;23.30;99.90;;;;;;5064659;28;20302;-66
2023/09/11 08:08:56;;;;;;;8.98;8.07;;;23.40;99.90;;;;;;5064605;28;20239;-66
2023/09/11 08:11:22;;;;;;;7.70;7.10;;;23.40;99.90;;;;;;5086752;28;20668;-66
2023/09/11 08:13:50;;;;;;;7.57;6.88;;;23.50;99.90;;;;;;5105008;28;20312;-66
2023/09/11 08:16:17;;;;;;;7.68;6.57;;;23.50;99.90;;;;;;5105169;28;20288;-66
2023/09/11 08:18:44;;;;;;;7.20;6.55;;;23.60;99.90;;;;;;5105446;28;20210;-66
2023/09/11 08:21:12;;;;;;;7.53;6.55;;;23.70;99.90;;;;;;5104644;28;20212;-66
2023/09/11 08:23:42;;;;;;;6.57;6.03;;;23.80;99.90;;;;;;5104445;28;20263;-66
2023/09/11 08:26:09;;;;;;;6.18;5.68;;;23.80;99.90;;;;;;5105067;28;20281;-66
2023/09/11 08:28:36;;;;;;;6.20;5.68;;;23.90;99.90;;;;;;5096857;28;20335;-66
2023/09/11 08:31:03;;;;;;;6.72;5.97;;;24.00;99.90;;;;;;5084512;28;20293;-66
2023/09/11 08:33:30;;;;;;;6.18;5.70;;;24.00;99.90;;;;;;5084569;28;20238;-66
2023/09/11 08:35:57;;;;;;;6.13;5.47;;;24.00;99.90;;;;;;5085027;28;20268;-66
2023/09/11 08:38:25;;;;;;;5.70;5.30;;;24.10;99.90;;;;;;5085310;28;20639;-67
2023/09/11 08:40:54;;;;;;;6.32;5.82;;;24.10;99.90;;;;;;5087691;28;20210;-66
2023/09/11 08:43:24;;;;;;;5.63;5.20;;;24.20;99.90;;;;;;5104590;28;20739;-66
2023/09/11 08:45:51;;;;;;;5.72;5.03;;;24.20;99.90;;;;;;5105366;28;20206;-66
2023/09/11 08:48:18;;;;;;;5.88;5.00;;;24.30;99.90;;;;;;5104501;28;20320;-66
2023/09/11 08:50:50;;;;;;;7.38;5.32;;;24.40;99.90;;;;;;5101333;28;20251;-66
2023/09/11 08:53:19;;;;;;;6.50;5.45;;;24.50;99.90;;;;;;5084494;28;21026;-66
2023/09/11 08:55:47;;;;;;;5.75;5.35;;;24.70;99.90;;;;;;5084493;28;20206;-66
2023/09/11 08:58:18;;;;;;;5.78;5.38;;;24.80;99.90;;;;;;5084237;28;20298;-66
2023/09/11 09:00:45;;;;;;;6.00;5.50;;;25.00;99.90;;;;;;5070497;28;20334;-66
2023/09/11 09:03:13;;;;;;;6.80;5.90;;;25.10;99.90;;;;;;5064673;28;20947;-66
2023/09/11 09:05:41;;;;;;;6.00;5.43;;;25.20;99.90;;;;;;5064332;28;20211;-66
2023/09/11 09:08:12;;;;;;;5.88;5.47;;;25.30;99.90;;;;;;5102301;28;20226;-66
2023/09/11 09:10:39;;;;;;;6.00;5.50;;;25.30;99.90;;;;;;5103084;28;20281;-66
2023/09/11 09:13:07;;;;;;;7.15;5.88;;;25.40;99.90;;;;;;5083865;28;20555;-66
2023/09/11 09:15:40;;;;;;;6.57;6.00;;;25.50;99.90;;;;;;5083664;28;20213;-66
2023/09/11 09:18:07;;;;;;;7.10;6.50;;;25.50;99.90;;;;;;5083905;28;20203;-66
2023/09/11 09:20:35;;;;;;;6.47;5.53;;;25.60;99.90;;;;;;5083966;28;20207;-66
2023/09/11 09:23:02;;;;;;;10.82;9.88;;;25.70;99.90;;;;;;5083981;28;20203;-66
2023/09/11 09:25:30;;;;;;;22.88;20.58;;;25.70;99.90;;;;;;5082819;28;20754;-67
2023/09/11 09:27:58;;;;;;;8.68;6.68;;;25.70;99.90;;;;;;5063937;28;20259;-66
2023/09/11 09:30:26;;;;;;;6.45;5.93;;;25.80;99.90;;;;;;5064144;28;20294;-66
2023/09/11 09:32:56;;;;;;;7.28;5.63;;;25.80;99.90;;;;;;5064299;28;20210;-66
2023/09/11 09:35:26;;;;;;;5.70;5.20;;;25.80;99.90;;;;;;5067026;28;20268;-66
2023/09/11 09:37:55;;;;;;;5.93;5.57;;;25.80;99.90;;;;;;5067589;28;20281;-66
2023/09/11 09:40:33;;;;;;;7.40;5.63;;;25.80;99.90;;;;;;5067386;28;20322;-66
2023/09/11 09:43:03;;;;;;;5.10;4.80;;;25.80;99.90;;;;;;5067584;28;20696;-66
2023/09/11 09:45:33;;;;;;;5.38;5.07;;;25.80;99.90;;;;;;5067478;28;20311;-66
2023/09/11 09:48:09;;;;;;;5.93;5.25;;;26.00;99.90;;;;;;5067442;28;20281;-67
2023/09/11 09:50:52;;;;;;;5.90;5.40;;;26.20;99.90;;;;;;5067360;28;20328;-67
2023/09/11 09:53:24;;;;;;;6.00;5.25;;;26.20;99.90;;;;;;5067513;28;20282;-67
2023/09/11 09:55:51;;;;;;;5.65;5.25;;;26.30;99.90;;;;;;5070785;28;20282;-67
2023/09/11 09:58:20;;;;;;;7.45;5.38;;;26.40;99.90;;;;;;5087442;28;20238;-67
2023/09/11 10:00:47;;;;;;;5.70;5.30;;;26.50;99.90;;;;;;5087015;28;20242;-67
2023/09/11 10:03:16;;;;;;;6.15;5.43;;;26.70;99.90;;;;;;5087383;28;20207;-67
2023/09/11 10:05:42;;;;;;;5.68;5.18;;;26.80;99.70;;;;;;5086546;28;20217;-67
2023/09/11 10:08:15;;;;;;;6.57;5.88;;;26.90;99.90;;;;;;5087021;28;20252;-67
2023/09/11 10:10:42;;;;;;;6.22;5.60;;;27.00;99.90;;;;;;5086769;28;20230;-67
2023/09/11 10:13:12;;;;;;;5.63;5.15;;;27.10;99.30;;;;;;5086967;28;20214;-67
2023/09/11 10:15:40;;;;;;;8.23;5.03;;;27.20;98.60;;;;;;5087076;28;20622;-67
2023/09/11 10:18:08;;;;;;;5.60;5.13;;;27.30;99.50;;;;;;5087209;28;20637;-67
2023/09/11 10:20:37;;;;;;;8.85;5.50;;;27.30;99.90;;;;;;5087028;28;20199;-67
2023/09/11 10:23:06;;;;;;;7.82;5.40;;;27.30;99.70;;;;;;5086616;28;20289;-67
2023/09/11 10:25:36;;;;;;;6.82;5.53;;;27.30;99.70;;;;;;5086944;28;20302;-67
2023/09/11 10:28:05;;;;;;;6.30;5.70;;;27.30;99.90;;;;;;5086542;28;20197;-67
2023/09/11 10:30:38;;;;;;;6.55;5.80;;;27.30;99.90;;;;;;5087030;28;20216;-67
2023/09/11 10:33:10;;;;;;;6.40;5.80;;;27.40;99.90;;;;;;5086968;28;20230;-67
2023/09/11 10:35:41;;;;;;;9.75;5.82;;;27.50;99.90;;;;;;5085997;28;20202;-67
2023/09/11 10:38:09;;;;;;;9.23;5.38;;;27.40;99.90;;;;;;5085787;28;20195;-67
2023/09/11 10:40:39;;;;;;;6.18;5.28;;;27.40;99.90;;;;;;5086210;28;20207;-67
2023/09/11 10:43:07;;;;;;;6.72;5.55;;;27.40;99.90;;;;;;5086234;28;20207;-67
2023/09/11 10:45:34;;;;;;;10.30;6.38;;;27.40;99.90;;;;;;5066377;28;20238;-67
2023/09/11 10:48:01;;;;;;;6.55;5.57;;;27.50;99.90;;;;;;5068596;28;20231;-67
2023/09/11 10:50:32;;;;;;;6.88;6.22;;;27.70;99.90;;;;;;5085991;28;20217;-67
2023/09/11 10:53:00;;;;;;;7.63;5.55;;;27.70;99.80;;;;;;5069946;28;20292;-67
2023/09/11 10:55:27;;;;;;;7.22;5.88;;;27.80;99.90;;;;;;5065550;28;20303;-67
2023/09/11 10:57:58;;;;;;;8.20;5.50;;;27.80;99.90;;;;;;5065545;28;20247;-67
2023/09/11 11:00:26;;;;;;;6.35;5.10;;;27.90;99.90;;;;;;5065674;28;20299;-67
2023/09/11 11:02:56;;;;;;;10.32;5.90;;;28.00;99.90;;;;;;5066186;28;20196;-67
2023/09/11 11:05:23;;;;;;;5.90;5.32;;;28.10;99.90;;;;;;5065722;28;20258;-67
2023/09/11 11:07:52;;;;;;;9.30;5.82;;;28.20;99.90;;;;;;5076685;28;20289;-67
2023/09/11 11:10:21;;;;;;;6.05;5.55;;;28.20;99.90;;;;;;5084301;28;20243;-67
2023/09/11 11:12:48;;;;;;;9.20;5.57;;;28.20;99.90;;;;;;5085383;28;20214;-67
2023/09/11 11:15:25;;;;;;;6.85;5.82;;;28.30;99.90;;;;;;5085734;28;20297;-67
2023/09/11 11:18:06;;;;;;;6.20;5.50;;;28.30;99.90;;;;;;5070332;28;20298;-67
2023/09/11 11:20:34;;;;;;;6.53;5.93;;;28.30;99.00;;;;;;5085392;28;20218;-67
2023/09/11 11:23:08;;;;;;;5.70;5.20;;;28.40;99.10;;;;;;5085797;28;20199;-67
2023/09/11 11:25:36;;;;;;;9.52;5.80;;;28.40;99.80;;;;;;5085094;28;20690;-67
2023/09/11 11:28:16;;;;;;;7.32;5.53;;;28.50;98.80;;;;;;5085696;28;20286;-67
2023/09/11 11:30:45;;;;;;;13.60;5.75;;;28.50;98.80;;;;;;5085921;28;20203;-67
2023/09/11 11:33:15;;;;;;;9.57;5.60;;;28.60;98.20;;;;;;5086207;28;20249;-67
2023/09/11 11:35:45;;;;;;;10.63;5.65;;;28.70;98.30;;;;;;5079762;28;20195;-67
2023/09/11 11:38:16;;;;;;;12.10;5.90;;;28.60;98.50;;;;;;5065767;28;20198;-67
2023/09/11 11:40:45;;;;;;;9.52;5.45;;;28.50;98.20;;;;;;5072448;28;20211;-67
2023/09/11 11:43:13;;;;;;;9.40;5.85;;;28.50;98.40;;;;;;5105814;28;20206;-67
2023/09/11 11:45:47;;;;;;;7.97;5.30;;;28.50;98.50;;;;;;5092777;28;20310;-67
2023/09/11 11:48:14;;;;;;;9.68;5.60;;;28.50;98.10;;;;;;5068607;28;20228;-67
2023/09/11 11:50:44;;;;;;;5.93;4.95;;;28.50;98.30;;;;;;5085589;28;20319;-67
2023/09/11 11:53:15;;;;;;;9.57;5.97;;;28.50;98.40;;;;;;5085764;28;20293;-67
2023/09/11 11:55:44;;;;;;;5.93;5.18;;;28.60;97.90;;;;;;5085596;28;20209;-67
2023/09/11 11:58:12;;;;;;;8.80;5.88;;;28.80;97.70;;;;;;5064888;28;20200;-67
2023/09/11 12:00:39;;;;;;;7.75;5.50;;;28.90;97.90;;;;;;5066220;28;20239;-67
2023/09/11 12:03:07;;;;;;;9.43;5.03;;;28.90;97.30;;;;;;5085362;28;20195;-67
2023/09/11 12:05:34;;;;;;;6.72;5.07;;;28.90;97.70;;;;;;5083088;28;20249;-67
2023/09/11 12:08:02;;;;;;;13.15;5.47;;;28.90;97.50;;;;;;5070845;28;20199;-67
2023/09/11 12:10:29;;;;;;;6.03;4.95;;;29.00;97.50;;;;;;5084563;28;20242;-67
2023/09/11 12:12:58;;;;;;;8.63;4.95;;;29.00;98.00;;;;;;5098205;28;20230;-67
2023/09/11 12:15:25;;;;;;;8.38;5.43;;;29.00;97.70;;;;;;5075354;28;20207;-67
2023/09/11 12:17:52;;;;;;;6.60;4.80;;;29.00;97.80;;;;;;5083312;28;20568;-67
2023/09/11 12:20:21;;;;;;;6.32;5.55;;;29.00;96.50;;;;;;5083073;28;20625;-67
2023/09/11 12:22:49;;;;;;;7.97;5.18;;;29.10;96.40;;;;;;5080411;28;20214;-67
2023/09/11 12:25:17;;;;;;;8.75;5.78;;;29.10;96.70;;;;;;5071329;28;20207;-67
2023/09/11 12:27:45;;;;;;;9.10;5.07;;;29.00;96.90;;;;;;5064418;28;20276;-67
2023/09/11 12:30:14;;;;;;;7.70;5.07;;;29.10;96.70;;;;;;5064111;28;20322;-67
2023/09/11 12:32:41;;;;;;;17.42;5.60;;;29.10;96.90;;;;;;5064147;28;20242;-67
2023/09/11 12:35:08;;;;;;;8.13;4.60;;;29.10;96.60;;;;;;5064477;28;20286;-67
2023/09/11 12:37:38;;;;;;;6.57;4.43;;;29.10;96.70;;;;;;5082012;28;20206;-67
2023/09/11 12:40:08;;;;;;;6.55;5.00;;;29.10;95.90;;;;;;5076574;28;20257;-67
2023/09/11 12:42:37;;;;;;;8.13;4.28;;;29.20;96.30;;;;;;5064203;28;20288;-67
2023/09/11 12:45:05;;;;;;;9.55;5.10;;;29.20;96.10;;;;;;5064572;28;20585;-67
2023/09/11 12:47:33;;;;;;;6.88;4.72;;;29.20;95.70;;;;;;5064500;28;20225;-67
2023/09/11 12:50:00;;;;;;;6.15;5.00;;;29.20;95.60;;;;;;5063962;28;20245;-67
2023/09/11 12:52:27;;;;;;;6.65;4.90;;;29.20;95.50;;;;;;5064267;28;20304;-67